Time;durP1;ratioP1;P1;durP2;ratioP2;P2;SDS_P1;SDS_P2;PMS_P1;PMS_P2;Temp;Humidity;BMP_temperature;BMP_pressure;BME280_temperature;BME280_humidity;BME280_pressure;Samples;Min_cycle;Max_cycle;Signal;HPM_P1;HPM_P2
2023/02/23 00:01:49;;;;;;;62.67;38.72;;;10.90;99.90;;;;;;6212331;28;20587;-82
2023/02/23 00:04:50;;;;;;;63.38;41.35;;;10.80;99.90;;;;;;6211539;28;20038;-83
2023/02/23 00:07:52;;;;;;;59.70;35.72;;;10.80;99.90;;;;;;6209366;28;20049;-83
2023/02/23 00:10:57;;;;;;;63.22;37.78;;;10.80;99.90;;;;;;6208321;28;20049;-83
2023/02/23 00:14:00;;;;;;;62.67;38.45;;;10.80;99.90;;;;;;6211398;28;20037;-82
2023/02/23 00:17:03;;;;;;;58.65;37.70;;;10.70;99.90;;;;;;6212959;28;20053;-83
2023/02/23 00:20:09;;;;;;;62.20;37.78;;;10.70;99.90;;;;;;6213620;28;20457;-83
2023/02/23 00:23:11;;;;;;;68.65;41.38;;;10.70;99.90;;;;;;6210859;28;20061;-82
2023/02/23 00:26:13;;;;;;;63.63;39.72;;;10.60;99.90;;;;;;6208397;28;20034;-82
2023/02/23 00:29:17;;;;;;;59.10;41.60;;;10.70;99.90;;;;;;6209214;28;20089;-81
2023/02/23 00:32:20;;;;;;;66.53;39.75;;;10.70;99.90;;;;;;6241862;22;20041;-82
2023/02/23 00:35:23;;;;;;;70.47;41.33;;;10.60;99.90;;;;;;6205493;28;20067;-80
2023/02/23 00:38:25;;;;;;;63.63;41.42;;;10.60;99.90;;;;;;6234992;28;20046;-81
2023/02/23 00:41:28;;;;;;;68.95;42.22;;;10.60;99.90;;;;;;6236201;28;20077;-81
2023/02/23 00:44:31;;;;;;;66.30;40.85;;;10.60;99.90;;;;;;6238011;28;20042;-81
2023/02/23 00:47:35;;;;;;;63.60;40.80;;;10.60;99.90;;;;;;6237237;28;20065;-81
2023/02/23 00:50:40;;;;;;;66.07;40.47;;;10.60;99.90;;;;;;6238262;28;20061;-80
2023/02/23 00:53:42;;;;;;;74.35;42.90;;;10.60;99.90;;;;;;6238001;28;20042;-81
2023/02/23 00:56:43;;;;;;;66.35;41.80;;;10.60;99.90;;;;;;6233563;28;20049;-79
2023/02/23 00:59:45;;;;;;;67.72;43.13;;;10.60;99.90;;;;;;6230386;28;20080;-79
2023/02/23 01:02:49;;;;;;;70.88;43.60;;;10.60;99.90;;;;;;6230509;28;20049;-79
2023/02/23 01:05:51;;;;;;;66.47;43.40;;;10.60;99.90;;;;;;6230744;28;20042;-79
2023/02/23 01:08:55;;;;;;;66.35;41.05;;;10.50;99.90;;;;;;6230826;28;20049;-80
2023/02/23 01:12:00;;;;;;;74.00;44.58;;;10.60;99.90;;;;;;6230026;28;20056;-79
2023/02/23 01:15:02;;;;;;;70.63;42.92;;;10.60;99.90;;;;;;6230609;28;20046;-80
2023/02/23 01:18:05;;;;;;;70.53;44.83;;;10.60;99.90;;;;;;6230597;28;20117;-79
2023/02/23 01:21:15;;;;;;;69.47;42.53;;;10.60;99.90;;;;;;6229988;28;20054;-79
2023/02/23 01:24:16;;;;;;;63.08;43.55;;;10.50;99.90;;;;;;6230011;28;20068;-79
2023/02/23 01:27:18;;;;;;;66.82;42.72;;;10.50;99.90;;;;;;6230331;28;20500;-79
2023/02/23 01:30:20;;;;;;;61.08;42.75;;;10.50;99.90;;;;;;6230266;28;20131;-79
2023/02/23 01:33:23;;;;;;;68.35;44.30;;;10.50;99.90;;;;;;6229244;28;20496;-79
2023/02/23 01:36:27;;;;;;;68.95;43.15;;;10.50;99.90;;;;;;6230297;28;20060;-79
2023/02/23 01:39:29;;;;;;;66.55;43.33;;;10.50;99.90;;;;;;6229393;28;20562;-80
2023/02/23 01:42:31;;;;;;;64.40;40.45;;;10.50;99.90;;;;;;6229101;28;20508;-79
2023/02/23 01:45:34;;;;;;;67.07;38.75;;;10.50;99.90;;;;;;6229179;28;20052;-79
2023/02/23 01:48:40;;;;;;;59.20;41.17;;;10.50;99.90;;;;;;6230223;28;20061;-79
2023/02/23 01:51:47;;;;;;;64.10;41.92;;;10.40;99.90;;;;;;6229762;28;20056;-80
2023/02/23 01:54:53;;;;;;;71.97;41.70;;;10.40;99.90;;;;;;6231925;28;20046;-80
2023/02/23 01:58:01;;;;;;;61.65;38.47;;;10.40;99.90;;;;;;6232539;28;20042;-80
2023/02/23 02:01:03;;;;;;;70.82;43.42;;;10.40;99.90;;;;;;6229926;28;20056;-80
2023/02/23 02:04:06;;;;;;;64.32;39.25;;;10.40;99.90;;;;;;6234679;28;20042;-80
2023/02/23 02:07:08;;;;;;;56.75;38.45;;;10.40;99.90;;;;;;6235275;28;20355;-80
2023/02/23 02:13:32;;;;;;;66.35;40.08;;;10.40;99.90;;;;;;6233262;28;20037;-80
2023/02/23 02:17:04;;;;;;;70.78;41.60;;;10.40;99.90;;;;;;6235316;28;20046;-80
2023/02/23 02:20:31;;;;;;;73.97;41.38;;;10.40;99.90;;;;;;6231158;28;20045;-79
2023/02/23 02:24:07;;;;;;;60.97;39.67;;;10.30;99.90;;;;;;6230049;28;20057;-80
2023/02/23 02:27:22;;;;;;;66.18;42.83;;;10.30;99.90;;;;;;6229378;28;20508;-79
2023/02/23 02:30:58;;;;;;;72.60;41.58;;;10.30;99.90;;;;;;6230162;28;20056;-80
2023/02/23 02:34:42;;;;;;;71.53;40.30;;;10.30;99.90;;;;;;6229353;28;20053;-80
2023/02/23 02:38:00;;;;;;;68.95;40.25;;;10.20;99.90;;;;;;6173649;28;20049;-80
2023/02/23 02:41:08;;;;;;;70.88;39.63;;;10.20;99.90;;;;;;6229726;28;20057;-80
2023/02/23 02:44:16;;;;;;;72.00;41.10;;;10.20;99.90;;;;;;6230076;28;20081;-79
2023/02/23 02:47:25;;;;;;;64.72;40.08;;;10.20;99.90;;;;;;6228324;28;20053;-80
2023/02/23 02:50:34;;;;;;;68.15;40.53;;;10.20;99.90;;;;;;6229145;28;20050;-80
2023/02/23 02:53:45;;;;;;;67.32;39.65;;;10.20;99.90;;;;;;6230654;28;20424;-80
2023/02/23 02:56:48;;;;;;;58.75;38.63;;;10.20;99.90;;;;;;6230917;28;20057;-79
2023/02/23 04:18:16;;;;;;;56.17;32.88;;;10.20;99.90;;;;;;6230563;28;20434;-80
2023/02/23 04:21:18;;;;;;;71.82;36.75;;;10.10;99.90;;;;;;6228273;28;20053;-80
2023/02/23 04:24:20;;;;;;;64.32;35.90;;;10.10;99.90;;;;;;6234561;28;20054;-80
2023/02/23 04:27:21;;;;;;;52.65;33.40;;;10.10;99.90;;;;;;6235060;28;20046;-80
2023/02/23 04:30:24;;;;;;;57.58;34.80;;;10.10;99.90;;;;;;6236269;28;20042;-80
2023/02/23 04:33:27;;;;;;;60.00;34.83;;;10.10;99.90;;;;;;6233233;28;20056;-81
2023/02/23 04:36:29;;;;;;;63.83;35.28;;;10.10;99.90;;;;;;6234147;28;20056;-81
2023/02/23 04:39:30;;;;;;;60.38;36.05;;;10.10;99.90;;;;;;6232809;28;20041;-80
2023/02/23 04:42:32;;;;;;;64.57;35.17;;;10.00;99.90;;;;;;6232951;28;20053;-80
2023/02/23 04:45:34;;;;;;;62.08;32.90;;;10.10;99.90;;;;;;6231734;28;20050;-80
2023/02/23 04:48:37;;;;;;;53.40;32.95;;;10.10;99.90;;;;;;6232590;28;20056;-80
2023/02/23 04:51:38;;;;;;;58.28;32.78;;;10.10;99.90;;;;;;6232523;28;20054;-80
2023/02/23 04:54:41;;;;;;;61.13;33.78;;;10.10;99.90;;;;;;6232099;28;20042;-80
2023/02/23 04:57:42;;;;;;;55.72;34.03;;;10.10;99.90;;;;;;6232546;28;20042;-79
2023/02/23 05:00:44;;;;;;;57.70;32.17;;;10.10;99.90;;;;;;6231984;28;20113;-79
2023/02/23 05:03:47;;;;;;;52.28;29.70;;;10.10;99.90;;;;;;6231703;28;20046;-80
2023/02/23 05:06:49;;;;;;;60.78;32.38;;;10.10;99.90;;;;;;6231908;28;20073;-80
2023/02/23 05:09:51;;;;;;;60.05;33.90;;;10.20;99.90;;;;;;6231771;28;20068;-80
2023/02/23 05:12:52;;;;;;;56.88;31.23;;;10.20;99.90;;;;;;6232496;28;20050;-80
2023/02/23 05:15:57;;;;;;;64.32;32.22;;;10.20;99.90;;;;;;6232401;28;20053;-79
2023/02/23 05:19:00;;;;;;;59.53;33.83;;;10.20;99.90;;;;;;6232901;28;20064;-80
2023/02/23 05:22:02;;;;;;;52.83;31.60;;;10.20;99.90;;;;;;6233006;28;20042;-80
2023/02/23 05:25:04;;;;;;;54.97;30.52;;;10.20;99.90;;;;;;6233234;28;20042;-80
2023/02/23 05:28:06;;;;;;;55.55;28.08;;;10.10;99.90;;;;;;6232679;28;20107;-80
2023/02/23 05:31:08;;;;;;;58.25;30.42;;;10.10;99.90;;;;;;6232030;28;20189;-80
2023/02/23 05:34:11;;;;;;;55.05;32.58;;;10.10;99.90;;;;;;6230675;28;20053;-80
2023/02/23 05:37:12;;;;;;;59.25;31.73;;;10.00;99.90;;;;;;6232244;28;20052;-80
2023/02/23 05:40:15;;;;;;;58.20;32.28;;;10.00;99.90;;;;;;6232147;28;20061;-80
2023/02/23 05:43:16;;;;;;;54.03;32.47;;;10.00;99.90;;;;;;6232624;28;20053;-80
2023/02/23 05:46:21;;;;;;;62.65;33.50;;;10.00;99.90;;;;;;6233472;28;20048;-81
2023/02/23 05:49:24;;;;;;;66.97;35.50;;;9.90;99.90;;;;;;6239709;28;20489;-81
2023/02/23 05:52:25;;;;;;;61.88;31.83;;;9.90;99.90;;;;;;6238230;28;20054;-82
2023/02/23 05:55:29;;;;;;;60.63;32.72;;;9.90;99.90;;;;;;6238756;28;20468;-82
2023/02/23 05:58:30;;;;;;;54.83;32.08;;;9.90;99.90;;;;;;6238599;28;20115;-82
2023/02/23 06:01:32;;;;;;;52.55;31.92;;;9.90;99.90;;;;;;6236689;28;20476;-82
2023/02/23 06:04:35;;;;;;;53.47;31.00;;;9.90;99.90;;;;;;6232881;28;20054;-82
2023/02/23 06:07:45;;;;;;;52.83;30.73;;;9.90;99.90;;;;;;6233168;28;20507;-82
2023/02/23 06:10:47;;;;;;;63.03;30.65;;;9.90;99.90;;;;;;6243526;28;20053;-81
2023/02/23 06:13:52;;;;;;;53.63;32.15;;;9.90;99.90;;;;;;6230730;28;20046;-81
2023/02/23 06:16:53;;;;;;;58.33;33.65;;;9.90;99.90;;;;;;6232622;28;20061;-82
2023/02/23 06:19:57;;;;;;;65.32;31.83;;;9.80;99.90;;;;;;6232002;28;20137;-81
2023/02/23 06:22:59;;;;;;;58.15;32.45;;;9.80;99.90;;;;;;6231386;28;20061;-82
2023/02/23 06:26:01;;;;;;;53.97;31.77;;;9.80;99.90;;;;;;6235685;28;20045;-82
2023/02/23 06:29:03;;;;;;;59.17;33.00;;;9.80;99.90;;;;;;6234094;28;20052;-81
2023/02/23 06:32:05;;;;;;;62.83;31.67;;;9.70;99.90;;;;;;6231067;28;20050;-80
2023/02/23 06:35:09;;;;;;;54.00;30.65;;;9.70;99.90;;;;;;6237649;28;20514;-80
2023/02/23 06:38:14;;;;;;;54.85;31.88;;;9.70;99.90;;;;;;6237289;28;20049;-81
2023/02/23 06:41:16;;;;;;;56.45;30.98;;;9.70;99.90;;;;;;6239580;28;20075;-81
2023/02/23 06:44:18;;;;;;;55.15;31.65;;;9.70;99.90;;;;;;6239413;28;20138;-81
2023/02/23 06:47:20;;;;;;;59.00;31.67;;;9.70;99.90;;;;;;6237460;28;20141;-83
2023/02/23 06:50:23;;;;;;;55.85;31.33;;;9.70;99.90;;;;;;6227653;28;20050;-82
2023/02/23 06:53:24;;;;;;;56.10;30.30;;;9.70;99.90;;;;;;6228208;28;20050;-83
2023/02/23 06:56:26;;;;;;;56.80;31.52;;;9.70;99.90;;;;;;6229068;28;20045;-83
2023/02/23 06:59:29;;;;;;;52.55;32.05;;;9.80;99.90;;;;;;6228964;28;20050;-83
2023/02/23 07:02:31;;;;;;;60.28;32.72;;;9.80;99.90;;;;;;6227632;28;20069;-83
2023/02/23 07:05:34;;;;;;;62.30;32.78;;;9.90;99.90;;;;;;6228097;28;20049;-83
2023/02/23 07:08:36;;;;;;;55.05;33.53;;;9.90;99.90;;;;;;6227808;28;20141;-83
2023/02/23 07:11:44;;;;;;;64.03;35.72;;;10.00;99.90;;;;;;6227290;28;20428;-83
2023/02/23 07:14:46;;;;;;;62.53;35.08;;;10.00;99.90;;;;;;6228359;28;20072;-83
2023/02/23 07:17:48;;;;;;;51.58;32.30;;;10.10;99.90;;;;;;6227451;28;20042;-83
2023/02/23 07:20:51;;;;;;;52.55;29.15;;;10.20;99.90;;;;;;6228526;28;20060;-83
2023/02/23 07:23:53;;;;;;;51.97;31.95;;;10.20;99.90;;;;;;6227195;28;20046;-83
2023/02/23 07:26:56;;;;;;;50.60;29.67;;;10.30;99.90;;;;;;6229240;28;20065;-84
2023/02/23 07:29:58;;;;;;;51.55;32.28;;;10.40;99.90;;;;;;6228416;28;20061;-83
2023/02/23 07:33:01;;;;;;;53.67;32.60;;;10.50;99.90;;;;;;6227662;28;20080;-84
2023/02/23 07:36:07;;;;;;;47.60;29.75;;;10.60;99.90;;;;;;6227195;28;20546;-83
2023/02/23 07:39:10;;;;;;;45.17;29.48;;;10.60;99.90;;;;;;6227116;28;20045;-83
2023/02/23 07:42:12;;;;;;;46.88;29.67;;;10.90;99.90;;;;;;6227688;28;20129;-83
2023/02/23 07:45:19;;;;;;;51.58;29.77;;;11.00;99.90;;;;;;6227767;28;20464;-84
2023/02/23 07:48:21;;;;;;;46.13;27.77;;;11.10;99.90;;;;;;6228738;28;20054;-83
2023/02/23 07:51:26;;;;;;;40.40;28.20;;;11.30;99.90;;;;;;6227708;28;20053;-83
2023/02/23 07:54:30;;;;;;;34.78;23.70;;;11.40;99.90;;;;;;6204616;28;20064;-83
2023/02/23 07:57:34;;;;;;;40.08;27.23;;;11.40;99.90;;;;;;6228194;28;20046;-83
2023/02/23 08:00:37;;;;;;;43.50;29.42;;;11.50;99.90;;;;;;6232002;28;20495;-82
2023/02/23 08:03:39;;;;;;;44.42;26.83;;;11.50;99.90;;;;;;6231000;28;20041;-82
2023/02/23 08:06:42;;;;;;;43.38;25.77;;;11.60;99.90;;;;;;6232522;28;20045;-83
2023/02/23 08:09:44;;;;;;;43.17;26.63;;;11.70;99.90;;;;;;6203605;28;20524;-82
2023/02/23 08:12:45;;;;;;;36.05;26.85;;;11.80;99.90;;;;;;6222555;28;20042;-83
2023/02/23 08:16:17;;;;;;;;;;;;;;;;;;;;;
2023/02/23 08:19:21;;;;;;;40.08;25.52;;;12.10;99.90;;;;;;6211908;28;20051;-82
2023/02/23 08:22:31;;;;;;;31.98;24.65;;;12.30;99.90;;;;;;6228635;28;20054;-83
2023/02/23 08:25:33;;;;;;;33.35;23.67;;;12.50;99.90;;;;;;6223229;28;20074;-83
2023/02/23 08:28:35;;;;;;;33.35;22.63;;;12.80;99.90;;;;;;6245312;28;20049;-81
2023/02/23 08:31:36;;;;;;;31.77;23.17;;;13.10;99.90;;;;;;6231942;28;20049;-84
2023/02/23 08:34:39;;;;;;;28.77;21.58;;;13.30;99.90;;;;;;6234501;28;20046;-83
2023/02/23 08:37:44;;;;;;;30.15;20.33;;;13.60;99.90;;;;;;6234592;28;20053;-84
2023/02/23 08:40:49;;;;;;;30.50;21.85;;;13.70;99.90;;;;;;6229346;28;20441;-84
2023/02/23 08:43:51;;;;;;;30.92;21.85;;;13.90;99.90;;;;;;6232264;28;20447;-83
2023/02/23 08:46:58;;;;;;;29.10;21.38;;;14.00;99.90;;;;;;6231810;28;20113;-84
2023/02/23 08:50:00;;;;;;;31.38;21.75;;;14.00;99.90;;;;;;6231135;28;20141;-83
2023/02/23 08:53:04;;;;;;;28.02;20.40;;;14.10;99.90;;;;;;6232265;28;20050;-83
2023/02/23 08:56:07;;;;;;;29.58;21.15;;;14.30;99.90;;;;;;6232815;28;20048;-82
2023/02/23 08:59:10;;;;;;;27.25;20.58;;;14.40;99.90;;;;;;6232817;28;20508;-83
2023/02/23 09:02:13;;;;;;;26.42;19.52;;;14.60;99.90;;;;;;6234110;28;20050;-83
2023/02/23 09:05:16;;;;;;;26.70;19.20;;;14.80;99.90;;;;;;6233429;28;20050;-83
2023/02/23 09:08:23;;;;;;;24.20;19.50;;;14.90;99.90;;;;;;6233540;28;20050;-83
2023/02/23 09:11:25;;;;;;;30.95;18.75;;;14.80;99.90;;;;;;6222538;28;20046;-82
2023/02/23 09:14:26;;;;;;;27.98;20.15;;;14.70;99.90;;;;;;6232484;28;20056;-82
2023/02/23 09:17:28;;;;;;;27.20;17.58;;;14.70;99.90;;;;;;6233615;28;20061;-84
2023/02/23 09:20:30;;;;;;;26.10;19.90;;;14.80;99.90;;;;;;6233302;28;20056;-83
2023/02/23 09:23:34;;;;;;;25.25;16.13;;;14.70;99.90;;;;;;6230382;28;20149;-82
2023/02/23 09:26:39;;;;;;;27.83;17.52;;;14.60;99.90;;;;;;6234283;28;20038;-81
2023/02/23 09:29:42;;;;;;;23.45;17.35;;;14.40;99.90;;;;;;6230077;28;20128;-82
2023/02/23 09:32:44;;;;;;;26.02;16.02;;;14.50;99.90;;;;;;6230923;28;20050;-82
2023/02/23 09:35:46;;;;;;;24.17;19.63;;;14.70;99.90;;;;;;6231101;28;20052;-81
2023/02/23 09:38:54;;;;;;;28.27;18.23;;;14.90;99.90;;;;;;6230627;28;20126;-82
2023/02/23 09:42:07;;;;;;;25.48;19.40;;;15.10;99.90;;;;;;6222943;28;20048;-83
2023/02/23 09:45:20;;;;;;;22.25;17.77;;;15.20;99.90;;;;;;6224928;28;20064;-82
2023/02/23 09:48:26;;;;;;;30.42;21.63;;;15.20;99.90;;;;;;6232348;28;20053;-83
2023/02/23 09:51:30;;;;;;;24.38;18.25;;;15.30;99.90;;;;;;6230667;28;20139;-83
2023/02/23 09:54:36;;;;;;;29.45;19.08;;;15.30;99.90;;;;;;6230464;28;20042;-82
2023/02/23 09:57:40;;;;;;;27.83;17.75;;;15.30;99.90;;;;;;6231708;28;20046;-82
2023/02/23 10:00:46;;;;;;;27.02;19.23;;;15.30;99.90;;;;;;6230763;28;20049;-83
2023/02/23 10:03:54;;;;;;;28.40;19.15;;;15.20;99.90;;;;;;6231493;28;20048;-83
2023/02/23 10:07:00;;;;;;;29.45;17.85;;;15.00;99.90;;;;;;6231078;28;20041;-82
2023/02/23 10:10:16;;;;;;;29.65;19.17;;;15.00;99.90;;;;;;6232294;28;20451;-82
2023/02/23 10:13:26;;;;;;;24.40;18.45;;;14.90;99.90;;;;;;6224552;28;20050;-82
2023/02/23 10:16:37;;;;;;;32.15;19.17;;;14.70;99.90;;;;;;6231238;28;20057;-82
2023/02/23 10:19:46;;;;;;;24.42;18.95;;;14.50;99.90;;;;;;6206164;28;20057;-82
2023/02/23 10:22:49;;;;;;;30.55;19.90;;;14.50;99.90;;;;;;6205924;28;20057;-82
2023/02/23 10:25:58;;;;;;;25.90;17.45;;;14.40;99.90;;;;;;6206375;28;20057;-82
2023/02/23 10:29:00;;;;;;;25.92;17.75;;;14.40;99.90;;;;;;6210378;28;20052;-82
2023/02/23 10:32:07;;;;;;;23.17;18.77;;;14.40;99.90;;;;;;6230418;28;20046;-82
2023/02/23 10:35:12;;;;;;;22.63;16.23;;;14.40;99.90;;;;;;6231301;28;20054;-81
2023/02/23 10:38:15;;;;;;;26.92;16.85;;;14.40;99.90;;;;;;6229717;28;20042;-82
2023/02/23 10:41:18;;;;;;;24.23;15.15;;;14.30;99.90;;;;;;6229664;28;20054;-82
2023/02/23 10:44:23;;;;;;;25.60;17.10;;;14.30;99.90;;;;;;6230208;28;20057;-82
2023/02/23 10:47:27;;;;;;;19.83;14.82;;;14.30;99.90;;;;;;6228933;28;20164;-82
2023/02/23 10:50:30;;;;;;;21.80;15.63;;;14.30;99.90;;;;;;6229193;28;20041;-82
2023/02/23 10:53:34;;;;;;;20.70;15.48;;;14.50;99.90;;;;;;6230456;28;20401;-82
2023/02/23 10:56:44;;;;;;;23.42;16.15;;;14.50;99.90;;;;;;6230127;28;20397;-82
2023/02/23 11:00:01;;;;;;;20.25;15.15;;;14.40;99.90;;;;;;6229339;28;20050;-82
2023/02/23 11:03:17;;;;;;;23.75;15.63;;;14.30;99.90;;;;;;6229400;28;20061;-82
2023/02/23 11:06:30;;;;;;;25.10;16.42;;;14.40;99.90;;;;;;6229799;28;20061;-82
2023/02/23 11:09:34;;;;;;;26.30;15.45;;;14.50;99.90;;;;;;6229524;28;20069;-83
2023/02/23 11:12:40;;;;;;;26.80;17.98;;;14.60;99.90;;;;;;6230090;28;20042;-83
2023/02/23 11:15:42;;;;;;;23.15;17.30;;;14.60;99.90;;;;;;6229643;28;20060;-82
2023/02/23 11:18:53;;;;;;;19.35;15.65;;;14.60;99.90;;;;;;6229403;28;20080;-82
2023/02/23 11:21:55;;;;;;;39.60;22.15;;;14.50;99.90;;;;;;6230172;28;20050;-83
2023/02/23 11:24:56;;;;;;;24.02;16.58;;;14.40;99.90;;;;;;6230978;28;20054;-82
2023/02/23 11:28:00;;;;;;;26.00;18.88;;;14.50;99.90;;;;;;6230043;28;20046;-82
2023/02/23 11:31:03;;;;;;;35.65;21.27;;;14.40;99.90;;;;;;6229895;28;20050;-82
2023/02/23 11:34:07;;;;;;;52.42;30.63;;;14.50;99.90;;;;;;6233343;28;20044;-82
2023/02/23 11:37:20;;;;;;;29.15;15.70;;;14.60;99.90;;;;;;6235097;28;20496;-85
2023/02/23 11:40:24;;;;;;;28.63;17.13;;;14.70;99.90;;;;;;6237099;28;20081;-83
2023/02/23 11:43:28;;;;;;;28.48;18.55;;;14.80;99.90;;;;;;6237780;28;20052;-82
2023/02/23 11:46:32;;;;;;;23.45;15.65;;;14.90;99.90;;;;;;6236122;28;20045;-80
2023/02/23 11:49:34;;;;;;;24.77;15.80;;;15.00;99.90;;;;;;6237470;28;20049;-81
2023/02/23 11:52:36;;;;;;;33.33;16.67;;;15.00;99.90;;;;;;6239082;28;20304;-82
2023/02/23 11:55:38;;;;;;;24.42;16.95;;;15.10;99.90;;;;;;6236942;28;20088;-82
2023/02/23 11:58:46;;;;;;;18.88;13.27;;;15.20;99.90;;;;;;6236795;28;20045;-83
2023/02/23 12:01:52;;;;;;;19.42;14.00;;;15.20;99.90;;;;;;6236467;28;20045;-85
2023/02/23 12:05:04;;;;;;;24.20;14.85;;;15.10;99.90;;;;;;6237969;28;20052;-85
2023/02/23 12:08:11;;;;;;;22.98;13.43;;;15.20;99.90;;;;;;6220644;28;20041;-83
2023/02/23 12:11:19;;;;;;;18.70;14.00;;;15.30;99.90;;;;;;6222147;28;20049;-81
2023/02/23 12:14:30;;;;;;;23.15;16.17;;;15.30;99.90;;;;;;6227177;28;20053;-82
2023/02/23 12:17:40;;;;;;;26.50;15.68;;;15.20;99.90;;;;;;6225489;28;20054;-81
2023/02/23 12:20:47;;;;;;;21.83;13.10;;;15.20;99.90;;;;;;6226590;28;21396;-81
2023/02/23 12:23:51;;;;;;;21.98;14.70;;;15.30;99.90;;;;;;6223245;28;20152;-81
2023/02/23 12:26:58;;;;;;;16.42;12.00;;;15.30;99.90;;;;;;6227456;28;20050;-81
2023/02/23 12:30:09;;;;;;;19.85;10.27;;;15.30;99.90;;;;;;6223271;28;20054;-82
2023/02/23 12:33:15;;;;;;;18.05;11.75;;;15.30;99.90;;;;;;6223290;28;20042;-81
2023/02/23 12:36:24;;;;;;;29.33;14.00;;;15.20;99.90;;;;;;6224554;28;20054;-81
2023/02/23 12:39:30;;;;;;;21.85;11.73;;;15.10;99.90;;;;;;6221316;28;20042;-82
2023/02/23 12:42:40;;;;;;;17.70;11.20;;;15.20;99.90;;;;;;6220848;28;20061;-81
2023/02/23 12:45:45;;;;;;;129.30;92.85;;;15.20;99.90;;;;;;6219933;28;20038;-81
2023/02/23 12:48:56;;;;;;;31.83;28.63;;;15.20;99.90;;;;;;6223305;28;20046;-81
2023/02/23 12:52:07;;;;;;;21.70;16.52;;;15.20;99.90;;;;;;6223608;28;20054;-82
2023/02/23 12:55:11;;;;;;;16.35;12.13;;;15.30;99.90;;;;;;6220264;28;20058;-82
2023/02/23 12:58:23;;;;;;;23.70;16.40;;;15.30;99.90;;;;;;6220146;28;20496;-80
2023/02/23 13:01:30;;;;;;;30.42;19.75;;;15.10;99.90;;;;;;6223322;28;20045;-82
2023/02/23 13:04:44;;;;;;;18.05;13.50;;;15.20;99.90;;;;;;6222159;28;20042;-81
2023/02/23 13:07:55;;;;;;;19.15;13.15;;;15.30;99.90;;;;;;6220541;28;22819;-81
2023/02/23 13:11:07;;;;;;;16.83;11.35;;;15.20;99.90;;;;;;6218475;28;20057;-80
2023/02/23 13:14:16;;;;;;;16.40;13.15;;;15.20;99.90;;;;;;6220126;28;20065;-80
2023/02/23 13:17:31;;;;;;;17.23;11.95;;;15.30;99.90;;;;;;6220116;28;20130;-82
2023/02/23 13:20:37;;;;;;;21.55;14.07;;;15.30;99.90;;;;;;6223780;28;20061;-81
2023/02/23 13:23:44;;;;;;;18.67;11.00;;;15.30;99.90;;;;;;6222950;28;20042;-81
2023/02/23 13:26:51;;;;;;;35.10;31.53;;;15.40;99.90;;;;;;6221779;28;20050;-81
2023/02/23 13:29:54;;;;;;;21.80;19.30;;;15.40;99.90;;;;;;6222201;28;20042;-81
2023/02/23 13:32:59;;;;;;;17.42;14.07;;;15.40;99.90;;;;;;6220707;28;20412;-81
2023/02/23 13:36:01;;;;;;;14.32;11.30;;;15.40;99.90;;;;;;6221561;28;20532;-81
2023/02/23 13:39:33;;;;;;;17.13;13.32;;;15.40;99.90;;;;;;6218088;28;20535;-81
2023/02/23 13:42:51;;;;;;;16.55;11.57;;;15.30;99.90;;;;;;6219922;28;20046;-81
2023/02/23 13:46:18;;;;;;;23.60;11.73;;;15.30;99.90;;;;;;6220195;28;20045;-81
2023/02/23 13:49:34;;;;;;;16.95;11.40;;;15.00;99.90;;;;;;6218751;28;20440;-81
2023/02/23 13:52:39;;;;;;;20.55;15.63;;;14.80;99.90;;;;;;6215432;28;20155;-81
2023/02/23 13:55:50;;;;;;;16.05;10.90;;;14.80;99.90;;;;;;6217260;28;20038;-81
2023/02/23 13:58:56;;;;;;;18.25;12.90;;;14.80;99.90;;;;;;6214068;28;20404;-81
2023/02/23 14:02:02;;;;;;;26.92;15.52;;;14.70;99.90;;;;;;6215452;28;20053;-81
2023/02/23 14:05:15;;;;;;;18.45;14.45;;;14.70;99.90;;;;;;6213069;28;20058;-81
2023/02/23 14:08:23;;;;;;;21.30;13.30;;;14.70;99.90;;;;;;6214609;28;20061;-83
2023/02/23 14:11:43;;;;;;;21.52;11.57;;;14.60;99.90;;;;;;6215771;28;20065;-81
2023/02/23 14:14:46;;;;;;;14.90;11.02;;;14.50;99.90;;;;;;6213118;28;20065;-81
2023/02/23 14:18:21;;;;;;;18.25;11.98;;;14.40;99.90;;;;;;6213805;28;20062;-81
2023/02/23 14:21:32;;;;;;;17.48;11.57;;;14.30;99.90;;;;;;6218724;28;20049;-82
2023/02/23 14:24:33;;;;;;;17.65;10.75;;;14.40;99.90;;;;;;6216359;28;20180;-81
2023/02/23 14:27:42;;;;;;;186.77;131.18;;;14.50;99.90;;;;;;6215372;28;20034;-81
2023/02/23 14:30:49;;;;;;;72.70;62.25;;;14.50;99.90;;;;;;6214710;28;20050;-81
2023/02/23 14:33:58;;;;;;;36.30;32.95;;;14.50;99.90;;;;;;6217689;28;20050;-83
2023/02/23 14:37:13;;;;;;;26.75;23.90;;;14.50;99.90;;;;;;6217611;28;20425;-81
2023/02/23 14:40:19;;;;;;;26.88;24.20;;;14.60;99.90;;;;;;6209394;28;20070;-80
2023/02/23 14:43:41;;;;;;;18.65;15.48;;;14.60;99.90;;;;;;6220037;28;20065;-80
2023/02/23 14:46:55;;;;;;;17.00;12.60;;;14.60;99.90;;;;;;6221956;28;20042;-81
2023/02/23 14:50:00;;;;;;;21.27;13.65;;;14.60;99.90;;;;;;6220806;28;20101;-80
2023/02/23 14:53:07;;;;;;;21.52;14.48;;;14.70;99.90;;;;;;6215975;28;20065;-82
2023/02/23 14:56:18;;;;;;;20.10;13.15;;;14.70;99.90;;;;;;6216526;28;20078;-82
2023/02/23 14:59:21;;;;;;;25.58;14.90;;;14.70;99.90;;;;;;6222077;28;20245;-82
2023/02/23 15:02:25;;;;;;;21.90;13.65;;;14.80;99.90;;;;;;6216828;28;20050;-80
2023/02/23 15:05:30;;;;;;;28.25;20.17;;;14.70;99.90;;;;;;6217699;28;20065;-82
2023/02/23 15:08:38;;;;;;;51.00;24.55;;;14.70;99.90;;;;;;6221055;28;20038;-80
2023/02/23 15:11:42;;;;;;;24.20;15.38;;;14.80;99.90;;;;;;6216217;28;20049;-81
2023/02/23 15:14:47;;;;;;;22.58;17.83;;;14.70;99.90;;;;;;6209906;28;20510;-83
2023/02/23 15:17:52;;;;;;;22.10;15.98;;;14.70;99.90;;;;;;6212990;28;22576;-82
2023/02/23 15:20:53;;;;;;;23.52;15.48;;;14.70;99.90;;;;;;6222756;28;20077;-80
2023/02/23 15:24:06;;;;;;;24.08;15.55;;;14.70;99.90;;;;;;6219200;28;20049;-81
2023/02/23 15:27:16;;;;;;;21.48;15.73;;;14.60;99.90;;;;;;6218563;28;20053;-81
2023/02/23 15:30:21;;;;;;;18.02;13.77;;;14.50;99.90;;;;;;6226296;28;20408;-81
2023/02/23 15:33:27;;;;;;;17.38;13.30;;;14.50;99.90;;;;;;6220606;28;20050;-81
2023/02/23 15:36:33;;;;;;;22.05;13.70;;;14.40;99.90;;;;;;6217957;28;20052;-81
2023/02/23 15:39:40;;;;;;;22.40;14.73;;;14.40;99.90;;;;;;6215799;28;20117;-81
2023/02/23 15:42:45;;;;;;;21.07;14.27;;;14.40;99.90;;;;;;6217867;28;20050;-81
2023/02/23 15:45:51;;;;;;;19.30;13.45;;;14.30;99.90;;;;;;6215690;28;20046;-82
2023/02/23 15:48:54;;;;;;;19.17;15.02;;;14.20;99.90;;;;;;6216406;28;20077;-82
2023/02/23 15:52:00;;;;;;;17.58;13.13;;;14.20;99.90;;;;;;6216498;28;20063;-81
2023/02/23 15:55:09;;;;;;;21.25;16.65;;;14.20;99.90;;;;;;6216177;28;20050;-81
2023/02/23 15:58:20;;;;;;;23.95;15.57;;;14.10;99.90;;;;;;6214296;28;20042;-83
2023/02/23 16:01:24;;;;;;;29.85;15.70;;;14.10;99.90;;;;;;6214758;28;20124;-82
2023/02/23 16:04:31;;;;;;;24.73;14.98;;;14.10;99.90;;;;;;6216209;28;20053;-82
2023/02/23 16:07:42;;;;;;;24.58;14.63;;;14.10;99.90;;;;;;6214691;28;20046;-83
2023/02/23 16:10:47;;;;;;;20.73;13.27;;;14.10;99.90;;;;;;6214916;28;20121;-82
2023/02/23 16:13:52;;;;;;;18.88;13.52;;;14.10;99.90;;;;;;6216840;28;20113;-82
2023/02/23 16:16:54;;;;;;;22.70;15.02;;;14.10;99.90;;;;;;6217046;28;20060;-83
2023/02/23 16:20:09;;;;;;;19.67;12.38;;;14.00;99.90;;;;;;6221083;28;20248;-81
2023/02/23 16:23:22;;;;;;;17.73;12.55;;;14.00;99.90;;;;;;6209500;28;20448;-81
2023/02/23 16:26:30;;;;;;;18.30;10.77;;;13.90;99.90;;;;;;6217534;28;20065;-83
2023/02/23 16:29:40;;;;;;;18.73;10.70;;;13.80;99.90;;;;;;6219741;28;20061;-81
2023/02/23 16:32:44;;;;;;;16.23;11.52;;;13.60;99.90;;;;;;6219713;28;20120;-81
2023/02/23 16:35:48;;;;;;;18.13;12.93;;;13.50;99.90;;;;;;6228275;28;20054;-83
2023/02/23 16:38:59;;;;;;;21.08;11.10;;;13.50;99.90;;;;;;6222597;28;20061;-83
2023/02/23 16:42:02;;;;;;;22.70;14.63;;;13.50;99.90;;;;;;6214642;28;20106;-83
2023/02/23 16:45:05;;;;;;;18.90;12.90;;;13.50;99.90;;;;;;6216126;28;20050;-81
2023/02/23 16:48:12;;;;;;;14.23;11.77;;;13.50;99.90;;;;;;6213732;28;20180;-81
2023/02/23 16:51:15;;;;;;;23.13;13.43;;;13.40;99.90;;;;;;6209712;28;20448;-81
2023/02/23 16:54:17;;;;;;;22.35;15.52;;;13.30;99.90;;;;;;6214020;28;20463;-79
2023/02/23 16:57:23;;;;;;;21.60;13.52;;;13.30;99.90;;;;;;6212847;28;21554;-79
2023/02/23 17:00:28;;;;;;;15.43;11.70;;;13.20;99.90;;;;;;6218307;28;20038;-81
2023/02/23 17:03:29;;;;;;;18.67;11.98;;;13.10;99.90;;;;;;6216251;28;20052;-80
2023/02/23 17:06:31;;;;;;;15.02;10.93;;;13.10;99.90;;;;;;6218199;28;20511;-80